sensor_id;sensor_type;location;lat;lon;timestamp;P1;durP1;ratioP1;P2;durP2;ratioP2
15049;SDS011;7622;42.724;23.250;2024-03-06T00:00:11;19.73;;;12.67;;
15049;SDS011;7622;42.724;23.250;2024-03-06T00:02:40;24.20;;;13.57;;
15049;SDS011;7622;42.724;23.250;2024-03-06T00:05:07;17.80;;;12.03;;
15049;SDS011;7622;42.724;23.250;2024-03-06T00:07:34;20.00;;;13.17;;
15049;SDS011;7622;42.724;23.250;2024-03-06T00:10:00;20.60;;;12.97;;
15049;SDS011;7622;42.724;23.250;2024-03-06T00:12:30;25.20;;;13.50;;
15049;SDS011;7622;42.724;23.250;2024-03-06T00:14:56;22.17;;;13.07;;
15049;SDS011;7622;42.724;23.250;2024-03-06T00:17:23;17.27;;;12.50;;
15049;SDS011;7622;42.724;23.250;2024-03-06T00:19:51;18.43;;;12.33;;
15049;SDS011;7622;42.724;23.250;2024-03-06T00:22:18;24.20;;;12.77;;
15049;SDS011;7622;42.724;23.250;2024-03-06T00:24:44;20.00;;;11.93;;
15049;SDS011;7622;42.724;23.250;2024-03-06T00:27:11;21.73;;;13.10;;
15049;SDS011;7622;42.724;23.250;2024-03-06T00:29:38;19.60;;;12.30;;
15049;SDS011;7622;42.724;23.250;2024-03-06T00:32:04;19.40;;;10.87;;
15049;SDS011;7622;42.724;23.250;2024-03-06T00:34:31;21.30;;;12.20;;
15049;SDS011;7622;42.724;23.250;2024-03-06T00:36:59;18.40;;;11.53;;
15049;SDS011;7622;42.724;23.250;2024-03-06T00:39:27;21.10;;;12.30;;
15049;SDS011;7622;42.724;23.250;2024-03-06T00:41:54;20.70;;;13.00;;
15049;SDS011;7622;42.724;23.250;2024-03-06T00:44:20;24.90;;;14.23;;
15049;SDS011;7622;42.724;23.250;2024-03-06T00:46:47;24.77;;;14.33;;
15049;SDS011;7622;42.724;23.250;2024-03-06T00:49:14;22.97;;;13.53;;
15049;SDS011;7622;42.724;23.250;2024-03-06T00:51:41;23.20;;;13.03;;
15049;SDS011;7622;42.724;23.250;2024-03-06T00:54:09;20.73;;;12.43;;
15049;SDS011;7622;42.724;23.250;2024-03-06T00:56:37;20.63;;;12.00;;
15049;SDS011;7622;42.724;23.250;2024-03-06T00:59:04;24.93;;;14.13;;
15049;SDS011;7622;42.724;23.250;2024-03-06T01:01:30;23.83;;;14.10;;
15049;SDS011;7622;42.724;23.250;2024-03-06T01:03:57;21.67;;;13.50;;
15049;SDS011;7622;42.724;23.250;2024-03-06T01:06:24;24.27;;;14.17;;
15049;SDS011;7622;42.724;23.250;2024-03-06T01:08:51;24.33;;;13.60;;
15049;SDS011;7622;42.724;23.250;2024-03-06T01:11:19;22.77;;;13.53;;
15049;SDS011;7622;42.724;23.250;2024-03-06T01:13:45;19.30;;;12.30;;
15049;SDS011;7622;42.724;23.250;2024-03-06T01:16:12;20.87;;;12.40;;
15049;SDS011;7622;42.724;23.250;2024-03-06T01:18:39;19.83;;;12.83;;
15049;SDS011;7622;42.724;23.250;2024-03-06T01:21:05;21.13;;;13.03;;
15049;SDS011;7622;42.724;23.250;2024-03-06T01:23:32;20.00;;;13.10;;
15049;SDS011;7622;42.724;23.250;2024-03-06T01:25:59;21.63;;;13.97;;
15049;SDS011;7622;42.724;23.250;2024-03-06T01:28:27;24.07;;;14.37;;
15049;SDS011;7622;42.724;23.250;2024-03-06T01:30:53;21.83;;;13.37;;
15049;SDS011;7622;42.724;23.250;2024-03-06T01:33:20;21.43;;;13.23;;
15049;SDS011;7622;42.724;23.250;2024-03-06T01:35:47;21.80;;;13.93;;
15049;SDS011;7622;42.724;23.250;2024-03-06T01:38:17;24.87;;;13.83;;
15049;SDS011;7622;42.724;23.250;2024-03-06T01:40:46;25.10;;;14.10;;
15049;SDS011;7622;42.724;23.250;2024-03-06T01:43:21;21.50;;;13.40;;
15049;SDS011;7622;42.724;23.250;2024-03-06T01:45:50;21.37;;;12.77;;
15049;SDS011;7622;42.724;23.250;2024-03-06T01:48:19;23.20;;;13.37;;
15049;SDS011;7622;42.724;23.250;2024-03-06T01:50:47;21.63;;;12.70;;
15049;SDS011;7622;42.724;23.250;2024-03-06T01:53:14;23.30;;;13.10;;
15049;SDS011;7622;42.724;23.250;2024-03-06T01:55:44;21.33;;;12.80;;
15049;SDS011;7622;42.724;23.250;2024-03-06T01:58:11;20.67;;;13.73;;
15049;SDS011;7622;42.724;23.250;2024-03-06T02:00:37;24.57;;;14.43;;
15049;SDS011;7622;42.724;23.250;2024-03-06T02:03:06;21.33;;;13.23;;
15049;SDS011;7622;42.724;23.250;2024-03-06T02:05:33;28.47;;;14.17;;
15049;SDS011;7622;42.724;23.250;2024-03-06T02:08:01;21.97;;;13.57;;
15049;SDS011;7622;42.724;23.250;2024-03-06T02:10:29;20.93;;;12.67;;
15049;SDS011;7622;42.724;23.250;2024-03-06T02:12:56;22.40;;;12.40;;
15049;SDS011;7622;42.724;23.250;2024-03-06T02:15:23;21.17;;;13.50;;
15049;SDS011;7622;42.724;23.250;2024-03-06T02:17:49;22.50;;;13.13;;
15049;SDS011;7622;42.724;23.250;2024-03-06T02:20:21;24.43;;;12.80;;
15049;SDS011;7622;42.724;23.250;2024-03-06T02:22:48;23.77;;;13.93;;
15049;SDS011;7622;42.724;23.250;2024-03-06T02:25:15;29.43;;;13.97;;
15049;SDS011;7622;42.724;23.250;2024-03-06T02:27:44;26.87;;;13.67;;
15049;SDS011;7622;42.724;23.250;2024-03-06T02:30:13;20.47;;;12.57;;
15049;SDS011;7622;42.724;23.250;2024-03-06T02:32:40;21.07;;;12.50;;
15049;SDS011;7622;42.724;23.250;2024-03-06T02:35:08;21.67;;;13.20;;
15049;SDS011;7622;42.724;23.250;2024-03-06T02:37:37;18.77;;;13.20;;
15049;SDS011;7622;42.724;23.250;2024-03-06T02:40:04;22.27;;;12.77;;
15049;SDS011;7622;42.724;23.250;2024-03-06T02:42:35;27.10;;;12.10;;
15049;SDS011;7622;42.724;23.250;2024-03-06T02:45:04;16.53;;;11.17;;
15049;SDS011;7622;42.724;23.250;2024-03-06T02:47:30;19.47;;;11.90;;
15049;SDS011;7622;42.724;23.250;2024-03-06T02:49:57;22.20;;;11.67;;
15049;SDS011;7622;42.724;23.250;2024-03-06T02:52:24;19.33;;;11.57;;
15049;SDS011;7622;42.724;23.250;2024-03-06T02:54:52;24.77;;;13.47;;
15049;SDS011;7622;42.724;23.250;2024-03-06T02:57:18;24.43;;;13.27;;
15049;SDS011;7622;42.724;23.250;2024-03-06T02:59:45;21.33;;;13.57;;
15049;SDS011;7622;42.724;23.250;2024-03-06T03:02:12;23.20;;;14.40;;
15049;SDS011;7622;42.724;23.250;2024-03-06T03:04:39;21.37;;;13.20;;
15049;SDS011;7622;42.724;23.250;2024-03-06T03:07:05;22.07;;;12.47;;
15049;SDS011;7622;42.724;23.250;2024-03-06T03:09:32;19.47;;;12.60;;
15049;SDS011;7622;42.724;23.250;2024-03-06T03:12:02;19.77;;;13.63;;
15049;SDS011;7622;42.724;23.250;2024-03-06T03:14:29;23.83;;;13.63;;
15049;SDS011;7622;42.724;23.250;2024-03-06T03:16:55;24.17;;;12.73;;
15049;SDS011;7622;42.724;23.250;2024-03-06T03:19:22;23.63;;;13.33;;
15049;SDS011;7622;42.724;23.250;2024-03-06T03:21:49;25.17;;;13.30;;
15049;SDS011;7622;42.724;23.250;2024-03-06T03:24:16;26.47;;;14.93;;
15049;SDS011;7622;42.724;23.250;2024-03-06T03:26:45;28.37;;;17.97;;
15049;SDS011;7622;42.724;23.250;2024-03-06T03:29:13;30.00;;;14.90;;
15049;SDS011;7622;42.724;23.250;2024-03-06T03:31:40;23.57;;;14.27;;
15049;SDS011;7622;42.724;23.250;2024-03-06T03:34:07;22.63;;;12.37;;
15049;SDS011;7622;42.724;23.250;2024-03-06T03:36:39;22.53;;;12.50;;
15049;SDS011;7622;42.724;23.250;2024-03-06T03:39:06;26.13;;;14.07;;
15049;SDS011;7622;42.724;23.250;2024-03-06T03:41:38;20.97;;;12.90;;
15049;SDS011;7622;42.724;23.250;2024-03-06T03:44:09;20.93;;;12.77;;
15049;SDS011;7622;42.724;23.250;2024-03-06T03:46:37;23.40;;;12.93;;
15049;SDS011;7622;42.724;23.250;2024-03-06T03:49:04;19.83;;;13.23;;
15049;SDS011;7622;42.724;23.250;2024-03-06T03:51:31;23.63;;;13.10;;
15049;SDS011;7622;42.724;23.250;2024-03-06T03:53:57;22.60;;;12.93;;
15049;SDS011;7622;42.724;23.250;2024-03-06T03:56:24;22.83;;;13.97;;
15049;SDS011;7622;42.724;23.250;2024-03-06T03:58:51;21.70;;;13.27;;
15049;SDS011;7622;42.724;23.250;2024-03-06T04:01:17;20.37;;;12.57;;
15049;SDS011;7622;42.724;23.250;2024-03-06T04:03:45;25.70;;;13.13;;
15049;SDS011;7622;42.724;23.250;2024-03-06T04:06:13;30.07;;;12.80;;
15049;SDS011;7622;42.724;23.250;2024-03-06T04:08:40;25.47;;;13.47;;
15049;SDS011;7622;42.724;23.250;2024-03-06T04:11:06;21.17;;;12.37;;
15049;SDS011;7622;42.724;23.250;2024-03-06T04:13:34;23.00;;;12.87;;
15049;SDS011;7622;42.724;23.250;2024-03-06T04:16:02;18.50;;;11.57;;
15049;SDS011;7622;42.724;23.250;2024-03-06T04:18:30;27.77;;;12.03;;
15049;SDS011;7622;42.724;23.250;2024-03-06T04:21:01;29.17;;;13.00;;
15049;SDS011;7622;42.724;23.250;2024-03-06T04:23:29;20.50;;;13.07;;
15049;SDS011;7622;42.724;23.250;2024-03-06T04:25:56;31.40;;;14.20;;
15049;SDS011;7622;42.724;23.250;2024-03-06T04:28:22;28.10;;;15.57;;
15049;SDS011;7622;42.724;23.250;2024-03-06T04:30:49;20.77;;;12.47;;
15049;SDS011;7622;42.724;23.250;2024-03-06T04:33:16;23.10;;;13.60;;
15049;SDS011;7622;42.724;23.250;2024-03-06T04:35:42;20.37;;;12.37;;
15049;SDS011;7622;42.724;23.250;2024-03-06T04:38:10;19.27;;;12.97;;
15049;SDS011;7622;42.724;23.250;2024-03-06T04:40:37;25.70;;;12.63;;
15049;SDS011;7622;42.724;23.250;2024-03-06T04:43:04;18.87;;;12.20;;
15049;SDS011;7622;42.724;23.250;2024-03-06T04:45:31;22.13;;;12.17;;
15049;SDS011;7622;42.724;23.250;2024-03-06T04:47:58;21.73;;;12.53;;
15049;SDS011;7622;42.724;23.250;2024-03-06T04:50:25;22.40;;;14.13;;
15049;SDS011;7622;42.724;23.250;2024-03-06T04:52:52;21.43;;;12.73;;
15049;SDS011;7622;42.724;23.250;2024-03-06T04:55:20;16.70;;;11.83;;
15049;SDS011;7622;42.724;23.250;2024-03-06T04:57:47;22.97;;;12.53;;
15049;SDS011;7622;42.724;23.250;2024-03-06T05:00:15;21.60;;;13.33;;
15049;SDS011;7622;42.724;23.250;2024-03-06T05:02:43;19.60;;;12.53;;
15049;SDS011;7622;42.724;23.250;2024-03-06T05:05:10;20.60;;;12.77;;
15049;SDS011;7622;42.724;23.250;2024-03-06T05:07:37;21.43;;;13.67;;
15049;SDS011;7622;42.724;23.250;2024-03-06T05:10:04;22.83;;;13.23;;
15049;SDS011;7622;42.724;23.250;2024-03-06T05:12:34;23.60;;;13.13;;
15049;SDS011;7622;42.724;23.250;2024-03-06T05:15:01;24.93;;;12.07;;
15049;SDS011;7622;42.724;23.250;2024-03-06T05:17:28;24.60;;;13.10;;
15049;SDS011;7622;42.724;23.250;2024-03-06T05:19:55;30.00;;;12.10;;
15049;SDS011;7622;42.724;23.250;2024-03-06T05:22:21;22.03;;;12.77;;
15049;SDS011;7622;42.724;23.250;2024-03-06T05:24:48;21.30;;;12.17;;
15049;SDS011;7622;42.724;23.250;2024-03-06T05:27:15;20.53;;;11.23;;
15049;SDS011;7622;42.724;23.250;2024-03-06T05:29:44;20.47;;;11.43;;
15049;SDS011;7622;42.724;23.250;2024-03-06T05:32:11;21.90;;;11.10;;
15049;SDS011;7622;42.724;23.250;2024-03-06T05:34:37;23.30;;;11.93;;
15049;SDS011;7622;42.724;23.250;2024-03-06T05:37:04;22.70;;;11.80;;
15049;SDS011;7622;42.724;23.250;2024-03-06T05:39:31;23.23;;;12.73;;
15049;SDS011;7622;42.724;23.250;2024-03-06T05:42:01;19.27;;;11.77;;
15049;SDS011;7622;42.724;23.250;2024-03-06T05:44:29;24.13;;;12.13;;
15049;SDS011;7622;42.724;23.250;2024-03-06T05:46:58;27.40;;;12.83;;
15049;SDS011;7622;42.724;23.250;2024-03-06T05:49:26;19.67;;;12.87;;
15049;SDS011;7622;42.724;23.250;2024-03-06T05:51:53;24.67;;;12.10;;
15049;SDS011;7622;42.724;23.250;2024-03-06T05:54:20;35.93;;;12.60;;
15049;SDS011;7622;42.724;23.250;2024-03-06T05:56:47;26.23;;;12.73;;
15049;SDS011;7622;42.724;23.250;2024-03-06T05:59:15;28.93;;;14.97;;
15049;SDS011;7622;42.724;23.250;2024-03-06T06:01:41;29.77;;;15.53;;
15049;SDS011;7622;42.724;23.250;2024-03-06T06:04:10;38.20;;;18.30;;
15049;SDS011;7622;42.724;23.250;2024-03-06T06:06:38;28.93;;;16.23;;
15049;SDS011;7622;42.724;23.250;2024-03-06T06:09:06;24.30;;;15.43;;
15049;SDS011;7622;42.724;23.250;2024-03-06T06:11:37;25.83;;;15.07;;
15049;SDS011;7622;42.724;23.250;2024-03-06T06:14:04;32.50;;;15.90;;
15049;SDS011;7622;42.724;23.250;2024-03-06T06:16:34;33.83;;;14.47;;
15049;SDS011;7622;42.724;23.250;2024-03-06T06:19:01;33.87;;;14.00;;
15049;SDS011;7622;42.724;23.250;2024-03-06T06:21:30;34.43;;;16.43;;
15049;SDS011;7622;42.724;23.250;2024-03-06T06:23:57;29.30;;;16.93;;
15049;SDS011;7622;42.724;23.250;2024-03-06T06:26:24;35.17;;;16.47;;
15049;SDS011;7622;42.724;23.250;2024-03-06T06:28:53;33.83;;;18.23;;
15049;SDS011;7622;42.724;23.250;2024-03-06T06:31:22;31.17;;;17.53;;
15049;SDS011;7622;42.724;23.250;2024-03-06T06:33:50;24.50;;;13.80;;
15049;SDS011;7622;42.724;23.250;2024-03-06T06:36:17;48.63;;;17.53;;
15049;SDS011;7622;42.724;23.250;2024-03-06T06:38:45;27.80;;;16.40;;
15049;SDS011;7622;42.724;23.250;2024-03-06T06:41:12;30.77;;;16.17;;
15049;SDS011;7622;42.724;23.250;2024-03-06T06:43:40;33.57;;;15.90;;
15049;SDS011;7622;42.724;23.250;2024-03-06T06:46:06;33.50;;;17.10;;
15049;SDS011;7622;42.724;23.250;2024-03-06T06:48:33;31.23;;;17.50;;
15049;SDS011;7622;42.724;23.250;2024-03-06T06:51:00;28.50;;;17.13;;
15049;SDS011;7622;42.724;23.250;2024-03-06T06:53:27;31.87;;;16.87;;
15049;SDS011;7622;42.724;23.250;2024-03-06T06:55:55;31.23;;;16.67;;
15049;SDS011;7622;42.724;23.250;2024-03-06T06:58:22;30.07;;;16.17;;
15049;SDS011;7622;42.724;23.250;2024-03-06T07:00:49;25.77;;;14.57;;
15049;SDS011;7622;42.724;23.250;2024-03-06T07:03:16;36.67;;;15.83;;
15049;SDS011;7622;42.724;23.250;2024-03-06T07:05:42;28.10;;;14.97;;
15049;SDS011;7622;42.724;23.250;2024-03-06T07:08:09;30.00;;;16.07;;
15049;SDS011;7622;42.724;23.250;2024-03-06T07:10:36;26.77;;;16.80;;
15049;SDS011;7622;42.724;23.250;2024-03-06T07:13:04;28.57;;;16.07;;
15049;SDS011;7622;42.724;23.250;2024-03-06T07:15:31;28.60;;;16.57;;
15049;SDS011;7622;42.724;23.250;2024-03-06T07:17:58;31.57;;;17.67;;
15049;SDS011;7622;42.724;23.250;2024-03-06T07:20:25;31.83;;;18.30;;
15049;SDS011;7622;42.724;23.250;2024-03-06T07:22:51;24.30;;;16.17;;
15049;SDS011;7622;42.724;23.250;2024-03-06T07:25:18;35.10;;;16.80;;
15049;SDS011;7622;42.724;23.250;2024-03-06T07:27:45;26.53;;;15.43;;
15049;SDS011;7622;42.724;23.250;2024-03-06T07:30:14;27.50;;;13.83;;
15049;SDS011;7622;42.724;23.250;2024-03-06T07:32:41;23.07;;;14.07;;
15049;SDS011;7622;42.724;23.250;2024-03-06T07:35:08;21.63;;;14.30;;
15049;SDS011;7622;42.724;23.250;2024-03-06T07:37:35;24.10;;;14.57;;
15049;SDS011;7622;42.724;23.250;2024-03-06T07:40:02;24.83;;;15.57;;
15049;SDS011;7622;42.724;23.250;2024-03-06T07:42:30;27.20;;;15.90;;
15049;SDS011;7622;42.724;23.250;2024-03-06T07:44:57;26.97;;;15.90;;
15049;SDS011;7622;42.724;23.250;2024-03-06T07:47:25;26.07;;;14.70;;
15049;SDS011;7622;42.724;23.250;2024-03-06T07:49:51;23.57;;;14.00;;
15049;SDS011;7622;42.724;23.250;2024-03-06T07:52:18;27.07;;;15.60;;
15049;SDS011;7622;42.724;23.250;2024-03-06T07:54:45;23.50;;;16.70;;
15049;SDS011;7622;42.724;23.250;2024-03-06T07:57:12;24.53;;;15.23;;
15049;SDS011;7622;42.724;23.250;2024-03-06T07:59:39;23.67;;;15.10;;
15049;SDS011;7622;42.724;23.250;2024-03-06T08:02:05;25.17;;;15.53;;
15049;SDS011;7622;42.724;23.250;2024-03-06T08:04:34;26.40;;;15.27;;
15049;SDS011;7622;42.724;23.250;2024-03-06T08:07:01;36.10;;;15.10;;
15049;SDS011;7622;42.724;23.250;2024-03-06T08:09:28;30.27;;;15.43;;
15049;SDS011;7622;42.724;23.250;2024-03-06T08:11:55;28.70;;;15.60;;
15049;SDS011;7622;42.724;23.250;2024-03-06T08:14:21;28.60;;;15.77;;
15049;SDS011;7622;42.724;23.250;2024-03-06T08:16:49;27.83;;;14.93;;
15049;SDS011;7622;42.724;23.250;2024-03-06T08:19:15;24.83;;;15.67;;
15049;SDS011;7622;42.724;23.250;2024-03-06T08:21:43;22.80;;;15.37;;
15049;SDS011;7622;42.724;23.250;2024-03-06T08:24:11;23.80;;;14.13;;
15049;SDS011;7622;42.724;23.250;2024-03-06T08:26:38;23.20;;;14.47;;
15049;SDS011;7622;42.724;23.250;2024-03-06T08:29:04;25.80;;;15.83;;
15049;SDS011;7622;42.724;23.250;2024-03-06T08:31:31;19.43;;;14.27;;
15049;SDS011;7622;42.724;23.250;2024-03-06T08:33:58;23.63;;;14.27;;
15049;SDS011;7622;42.724;23.250;2024-03-06T08:36:25;23.27;;;14.73;;
15049;SDS011;7622;42.724;23.250;2024-03-06T08:38:53;24.27;;;14.53;;
15049;SDS011;7622;42.724;23.250;2024-03-06T08:41:19;26.80;;;15.53;;
15049;SDS011;7622;42.724;23.250;2024-03-06T08:43:46;21.70;;;15.13;;
15049;SDS011;7622;42.724;23.250;2024-03-06T08:46:13;24.17;;;15.73;;
15049;SDS011;7622;42.724;23.250;2024-03-06T08:48:40;19.17;;;14.10;;
15049;SDS011;7622;42.724;23.250;2024-03-06T08:51:06;24.93;;;13.87;;
15049;SDS011;7622;42.724;23.250;2024-03-06T08:53:36;45.40;;;15.80;;
15049;SDS011;7622;42.724;23.250;2024-03-06T08:56:05;27.30;;;14.70;;
15049;SDS011;7622;42.724;23.250;2024-03-06T08:58:32;25.60;;;14.30;;
15049;SDS011;7622;42.724;23.250;2024-03-06T09:00:59;20.37;;;14.03;;
15049;SDS011;7622;42.724;23.250;2024-03-06T09:03:25;23.67;;;15.50;;
15049;SDS011;7622;42.724;23.250;2024-03-06T09:05:52;22.07;;;14.47;;
15049;SDS011;7622;42.724;23.250;2024-03-06T09:08:19;26.87;;;15.13;;
15049;SDS011;7622;42.724;23.250;2024-03-06T09:10:46;29.90;;;14.97;;
15049;SDS011;7622;42.724;23.250;2024-03-06T09:13:14;25.70;;;15.13;;
15049;SDS011;7622;42.724;23.250;2024-03-06T09:15:40;23.90;;;14.43;;
15049;SDS011;7622;42.724;23.250;2024-03-06T09:18:07;21.07;;;13.77;;
15049;SDS011;7622;42.724;23.250;2024-03-06T09:20:34;21.90;;;13.87;;
15049;SDS011;7622;42.724;23.250;2024-03-06T09:23:00;22.10;;;13.97;;
15049;SDS011;7622;42.724;23.250;2024-03-06T09:25:28;17.73;;;13.10;;
15049;SDS011;7622;42.724;23.250;2024-03-06T09:27:54;19.43;;;12.30;;
15049;SDS011;7622;42.724;23.250;2024-03-06T09:30:23;16.10;;;11.50;;
15049;SDS011;7622;42.724;23.250;2024-03-06T09:32:50;15.10;;;11.40;;
15049;SDS011;7622;42.724;23.250;2024-03-06T09:35:16;14.83;;;11.53;;
15049;SDS011;7622;42.724;23.250;2024-03-06T09:37:44;14.20;;;11.03;;
15049;SDS011;7622;42.724;23.250;2024-03-06T09:40:16;14.37;;;9.53;;
15049;SDS011;7622;42.724;23.250;2024-03-06T09:42:46;11.87;;;9.80;;
15049;SDS011;7622;42.724;23.250;2024-03-06T09:45:13;16.80;;;10.40;;
15049;SDS011;7622;42.724;23.250;2024-03-06T09:47:42;19.57;;;11.93;;
15049;SDS011;7622;42.724;23.250;2024-03-06T09:50:09;15.10;;;10.57;;
15049;SDS011;7622;42.724;23.250;2024-03-06T09:52:37;21.87;;;9.77;;
15049;SDS011;7622;42.724;23.250;2024-03-06T09:55:08;12.30;;;8.20;;
15049;SDS011;7622;42.724;23.250;2024-03-06T09:57:35;10.90;;;8.23;;
15049;SDS011;7622;42.724;23.250;2024-03-06T10:00:03;16.33;;;8.30;;
15049;SDS011;7622;42.724;23.250;2024-03-06T10:02:37;10.43;;;9.07;;
15049;SDS011;7622;42.724;23.250;2024-03-06T10:05:06;10.20;;;9.00;;
15049;SDS011;7622;42.724;23.250;2024-03-06T10:07:47;11.40;;;9.27;;
15049;SDS011;7622;42.724;23.250;2024-03-06T10:10:14;12.70;;;8.60;;
15049;SDS011;7622;42.724;23.250;2024-03-06T10:12:41;10.47;;;9.33;;
15049;SDS011;7622;42.724;23.250;2024-03-06T10:15:09;12.03;;;8.80;;
15049;SDS011;7622;42.724;23.250;2024-03-06T10:17:37;17.43;;;8.97;;
15049;SDS011;7622;42.724;23.250;2024-03-06T10:20:14;10.30;;;8.00;;
15049;SDS011;7622;42.724;23.250;2024-03-06T10:22:44;9.03;;;8.20;;
15049;SDS011;7622;42.724;23.250;2024-03-06T10:25:11;9.13;;;7.17;;
15049;SDS011;7622;42.724;23.250;2024-03-06T10:27:38;9.63;;;7.37;;
15049;SDS011;7622;42.724;23.250;2024-03-06T10:30:06;10.67;;;7.83;;
15049;SDS011;7622;42.724;23.250;2024-03-06T10:32:36;7.30;;;6.57;;
15049;SDS011;7622;42.724;23.250;2024-03-06T10:35:03;11.57;;;7.70;;
15049;SDS011;7622;42.724;23.250;2024-03-06T10:37:32;8.93;;;6.93;;
15049;SDS011;7622;42.724;23.250;2024-03-06T10:40:02;7.60;;;6.50;;
15049;SDS011;7622;42.724;23.250;2024-03-06T10:42:31;10.90;;;8.77;;
15049;SDS011;7622;42.724;23.250;2024-03-06T10:45:03;10.83;;;7.60;;
15049;SDS011;7622;42.724;23.250;2024-03-06T10:47:35;7.17;;;6.43;;
15049;SDS011;7622;42.724;23.250;2024-03-06T10:50:03;13.13;;;6.30;;
15049;SDS011;7622;42.724;23.250;2024-03-06T10:52:36;7.63;;;6.73;;
15049;SDS011;7622;42.724;23.250;2024-03-06T10:55:04;7.33;;;6.57;;
15049;SDS011;7622;42.724;23.250;2024-03-06T10:57:32;8.57;;;7.10;;
15049;SDS011;7622;42.724;23.250;2024-03-06T10:59:59;7.10;;;6.40;;
15049;SDS011;7622;42.724;23.250;2024-03-06T11:02:26;7.17;;;6.43;;
15049;SDS011;7622;42.724;23.250;2024-03-06T11:04:54;8.93;;;6.93;;
15049;SDS011;7622;42.724;23.250;2024-03-06T11:07:21;11.20;;;7.00;;
15049;SDS011;7622;42.724;23.250;2024-03-06T11:09:49;10.30;;;6.57;;
15049;SDS011;7622;42.724;23.250;2024-03-06T11:14:58;9.67;;;6.13;;
15049;SDS011;7622;42.724;23.250;2024-03-06T11:17:26;9.77;;;7.10;;
15049;SDS011;7622;42.724;23.250;2024-03-06T11:20:12;6.87;;;6.20;;
15049;SDS011;7622;42.724;23.250;2024-03-06T11:23:02;11.27;;;6.20;;
15049;SDS011;7622;42.724;23.250;2024-03-06T11:25:56;8.20;;;5.93;;
15049;SDS011;7622;42.724;23.250;2024-03-06T11:28:28;8.20;;;6.00;;
15049;SDS011;7622;42.724;23.250;2024-03-06T11:30:56;9.13;;;6.57;;
15049;SDS011;7622;42.724;23.250;2024-03-06T11:33:27;5.90;;;5.40;;
15049;SDS011;7622;42.724;23.250;2024-03-06T11:36:14;8.23;;;5.57;;
15049;SDS011;7622;42.724;23.250;2024-03-06T11:38:46;5.93;;;5.40;;
15049;SDS011;7622;42.724;23.250;2024-03-06T11:41:25;7.17;;;6.13;;
15049;SDS011;7622;42.724;23.250;2024-03-06T11:43:53;9.73;;;6.27;;
15049;SDS011;7622;42.724;23.250;2024-03-06T11:46:20;8.07;;;5.97;;
15049;SDS011;7622;42.724;23.250;2024-03-06T11:48:51;8.40;;;6.37;;
15049;SDS011;7622;42.724;23.250;2024-03-06T11:51:19;11.10;;;6.17;;
15049;SDS011;7622;42.724;23.250;2024-03-06T11:53:49;7.73;;;5.90;;
15049;SDS011;7622;42.724;23.250;2024-03-06T11:56:17;16.87;;;6.00;;
15049;SDS011;7622;42.724;23.250;2024-03-06T11:58:47;11.63;;;5.77;;
15049;SDS011;7622;42.724;23.250;2024-03-06T12:01:16;7.57;;;5.77;;
15049;SDS011;7622;42.724;23.250;2024-03-06T12:03:44;18.33;;;6.80;;
15049;SDS011;7622;42.724;23.250;2024-03-06T12:06:13;8.93;;;5.60;;
15049;SDS011;7622;42.724;23.250;2024-03-06T12:08:42;6.07;;;5.40;;
15049;SDS011;7622;42.724;23.250;2024-03-06T12:11:08;6.60;;;5.53;;
15049;SDS011;7622;42.724;23.250;2024-03-06T12:13:35;9.17;;;5.40;;
15049;SDS011;7622;42.724;23.250;2024-03-06T12:16:07;6.57;;;5.80;;
15049;SDS011;7622;42.724;23.250;2024-03-06T12:18:34;6.60;;;5.93;;
15049;SDS011;7622;42.724;23.250;2024-03-06T12:21:02;8.87;;;5.87;;
15049;SDS011;7622;42.724;23.250;2024-03-06T12:23:32;8.57;;;6.10;;
15049;SDS011;7622;42.724;23.250;2024-03-06T12:26:03;7.23;;;6.00;;
15049;SDS011;7622;42.724;23.250;2024-03-06T12:28:31;7.30;;;6.60;;
15049;SDS011;7622;42.724;23.250;2024-03-06T12:31:01;15.40;;;6.60;;
15049;SDS011;7622;42.724;23.250;2024-03-06T12:33:30;14.00;;;6.00;;
15049;SDS011;7622;42.724;23.250;2024-03-06T12:36:01;12.07;;;5.97;;
15049;SDS011;7622;42.724;23.250;2024-03-06T12:38:29;13.70;;;6.43;;
15049;SDS011;7622;42.724;23.250;2024-03-06T12:40:56;8.67;;;6.13;;
15049;SDS011;7622;42.724;23.250;2024-03-06T12:43:23;6.90;;;5.47;;
15049;SDS011;7622;42.724;23.250;2024-03-06T12:45:50;11.23;;;5.97;;
15049;SDS011;7622;42.724;23.250;2024-03-06T12:48:19;8.63;;;5.73;;
15049;SDS011;7622;42.724;23.250;2024-03-06T12:50:48;6.63;;;5.43;;
15049;SDS011;7622;42.724;23.250;2024-03-06T12:53:17;7.87;;;5.37;;
15049;SDS011;7622;42.724;23.250;2024-03-06T12:55:44;9.33;;;5.10;;
15049;SDS011;7622;42.724;23.250;2024-03-06T12:58:12;7.37;;;5.50;;
15049;SDS011;7622;42.724;23.250;2024-03-06T13:00:39;6.33;;;5.40;;
15049;SDS011;7622;42.724;23.250;2024-03-06T13:03:06;6.43;;;5.30;;
15049;SDS011;7622;42.724;23.250;2024-03-06T13:05:33;6.97;;;5.20;;
15049;SDS011;7622;42.724;23.250;2024-03-06T13:08:01;6.80;;;4.97;;
15049;SDS011;7622;42.724;23.250;2024-03-06T13:10:28;7.83;;;4.97;;
15049;SDS011;7622;42.724;23.250;2024-03-06T13:12:55;7.23;;;5.20;;
15049;SDS011;7622;42.724;23.250;2024-03-06T13:15:21;6.67;;;4.67;;
15049;SDS011;7622;42.724;23.250;2024-03-06T13:17:48;6.40;;;4.43;;
15049;SDS011;7622;42.724;23.250;2024-03-06T13:20:15;5.10;;;4.37;;
15049;SDS011;7622;42.724;23.250;2024-03-06T13:22:42;5.60;;;4.77;;
15049;SDS011;7622;42.724;23.250;2024-03-06T13:25:10;6.63;;;4.67;;
15049;SDS011;7622;42.724;23.250;2024-03-06T13:27:37;5.63;;;4.73;;
15049;SDS011;7622;42.724;23.250;2024-03-06T13:30:04;4.90;;;4.40;;
15049;SDS011;7622;42.724;23.250;2024-03-06T13:32:33;7.80;;;5.00;;
15049;SDS011;7622;42.724;23.250;2024-03-06T13:34:59;5.17;;;4.67;;
15049;SDS011;7622;42.724;23.250;2024-03-06T13:37:26;9.57;;;4.80;;
15049;SDS011;7622;42.724;23.250;2024-03-06T13:39:53;5.37;;;4.87;;
15049;SDS011;7622;42.724;23.250;2024-03-06T13:42:24;5.50;;;4.93;;
15049;SDS011;7622;42.724;23.250;2024-03-06T13:44:52;8.73;;;5.57;;
15049;SDS011;7622;42.724;23.250;2024-03-06T13:47:21;5.93;;;4.93;;
15049;SDS011;7622;42.724;23.250;2024-03-06T13:49:51;14.80;;;5.87;;
15049;SDS011;7622;42.724;23.250;2024-03-06T13:52:17;5.50;;;5.07;;
15049;SDS011;7622;42.724;23.250;2024-03-06T13:54:45;9.07;;;5.57;;
15049;SDS011;7622;42.724;23.250;2024-03-06T13:57:13;7.00;;;6.27;;
15049;SDS011;7622;42.724;23.250;2024-03-06T13:59:41;5.97;;;5.40;;
15049;SDS011;7622;42.724;23.250;2024-03-06T14:02:08;7.33;;;5.37;;
15049;SDS011;7622;42.724;23.250;2024-03-06T14:04:35;5.87;;;5.30;;
15049;SDS011;7622;42.724;23.250;2024-03-06T14:07:02;6.57;;;4.97;;
15049;SDS011;7622;42.724;23.250;2024-03-06T14:09:29;6.70;;;5.97;;
15049;SDS011;7622;42.724;23.250;2024-03-06T14:11:55;6.00;;;5.40;;
15049;SDS011;7622;42.724;23.250;2024-03-06T14:14:23;7.37;;;5.47;;
15049;SDS011;7622;42.724;23.250;2024-03-06T14:16:51;6.83;;;6.07;;
15049;SDS011;7622;42.724;23.250;2024-03-06T14:19:17;7.87;;;6.00;;
15049;SDS011;7622;42.724;23.250;2024-03-06T14:21:44;6.20;;;5.60;;
15049;SDS011;7622;42.724;23.250;2024-03-06T14:24:12;8.03;;;6.40;;
15049;SDS011;7622;42.724;23.250;2024-03-06T14:26:39;8.73;;;6.57;;
15049;SDS011;7622;42.724;23.250;2024-03-06T14:29:06;7.93;;;6.20;;
15049;SDS011;7622;42.724;23.250;2024-03-06T14:31:34;6.67;;;6.07;;
15049;SDS011;7622;42.724;23.250;2024-03-06T14:34:03;8.10;;;6.60;;